sensor_id;sensor_type;location;lat;lon;timestamp;P1;durP1;ratioP1;P2;durP2;ratioP2
76165;SDS011;65085;46.718;20.136;2022-11-23T00:01:15;8.13;;;4.57;;
76165;SDS011;65085;46.718;20.136;2022-11-23T00:04:19;7.93;;;4.70;;
76165;SDS011;65085;46.718;20.136;2022-11-23T00:07:22;9.93;;;4.55;;
76165;SDS011;65085;46.718;20.136;2022-11-23T00:10:26;11.52;;;4.97;;
76165;SDS011;65085;46.718;20.136;2022-11-23T00:13:28;8.63;;;4.77;;
76165;SDS011;65085;46.718;20.136;2022-11-23T00:16:30;12.05;;;5.10;;
76165;SDS011;65085;46.718;20.136;2022-11-23T00:19:33;8.50;;;4.97;;
76165;SDS011;65085;46.718;20.136;2022-11-23T00:22:36;10.55;;;4.80;;
76165;SDS011;65085;46.718;20.136;2022-11-23T00:25:39;11.95;;;4.93;;
76165;SDS011;65085;46.718;20.136;2022-11-23T00:28:45;8.87;;;4.20;;
76165;SDS011;65085;46.718;20.136;2022-11-23T00:31:48;7.78;;;4.28;;
76165;SDS011;65085;46.718;20.136;2022-11-23T00:34:51;10.52;;;4.55;;
76165;SDS011;65085;46.718;20.136;2022-11-23T00:37:53;11.30;;;4.55;;
76165;SDS011;65085;46.718;20.136;2022-11-23T00:41:00;7.82;;;4.43;;
76165;SDS011;65085;46.718;20.136;2022-11-23T00:44:04;9.00;;;4.37;;
76165;SDS011;65085;46.718;20.136;2022-11-23T00:47:08;7.85;;;4.35;;
76165;SDS011;65085;46.718;20.136;2022-11-23T00:50:10;8.18;;;4.25;;
76165;SDS011;65085;46.718;20.136;2022-11-23T00:53:13;7.03;;;4.10;;
76165;SDS011;65085;46.718;20.136;2022-11-23T00:56:17;9.23;;;4.40;;
76165;SDS011;65085;46.718;20.136;2022-11-23T00:59:19;9.00;;;4.13;;
76165;SDS011;65085;46.718;20.136;2022-11-23T01:02:22;8.43;;;4.47;;
76165;SDS011;65085;46.718;20.136;2022-11-23T01:05:24;8.63;;;4.40;;
76165;SDS011;65085;46.718;20.136;2022-11-23T01:08:27;9.15;;;4.10;;
76165;SDS011;65085;46.718;20.136;2022-11-23T01:11:31;9.13;;;4.38;;
76165;SDS011;65085;46.718;20.136;2022-11-23T01:14:34;8.27;;;3.93;;
76165;SDS011;65085;46.718;20.136;2022-11-23T01:17:39;7.57;;;4.28;;
76165;SDS011;65085;46.718;20.136;2022-11-23T01:20:42;8.20;;;4.40;;
76165;SDS011;65085;46.718;20.136;2022-11-23T01:23:45;7.95;;;4.28;;
76165;SDS011;65085;46.718;20.136;2022-11-23T01:26:50;6.82;;;4.00;;
76165;SDS011;65085;46.718;20.136;2022-11-23T01:29:54;8.93;;;4.53;;
76165;SDS011;65085;46.718;20.136;2022-11-23T01:32:56;6.95;;;4.20;;
76165;SDS011;65085;46.718;20.136;2022-11-23T01:35:59;7.38;;;4.22;;
76165;SDS011;65085;46.718;20.136;2022-11-23T01:39:02;15.75;;;4.60;;
76165;SDS011;65085;46.718;20.136;2022-11-23T01:42:06;11.02;;;4.63;;
76165;SDS011;65085;46.718;20.136;2022-11-23T01:45:33;7.30;;;4.50;;
76165;SDS011;65085;46.718;20.136;2022-11-23T01:48:39;9.95;;;4.65;;
76165;SDS011;65085;46.718;20.136;2022-11-23T01:51:46;9.30;;;4.70;;
76165;SDS011;65085;46.718;20.136;2022-11-23T01:54:52;7.65;;;4.45;;
76165;SDS011;65085;46.718;20.136;2022-11-23T01:57:58;11.27;;;5.30;;
76165;SDS011;65085;46.718;20.136;2022-11-23T02:01:02;9.80;;;5.43;;
76165;SDS011;65085;46.718;20.136;2022-11-23T02:04:05;9.98;;;4.80;;
76165;SDS011;65085;46.718;20.136;2022-11-23T02:07:10;12.05;;;5.93;;
76165;SDS011;65085;46.718;20.136;2022-11-23T02:10:13;10.20;;;5.10;;
76165;SDS011;65085;46.718;20.136;2022-11-23T02:13:17;9.82;;;4.93;;
76165;SDS011;65085;46.718;20.136;2022-11-23T02:16:20;10.67;;;5.27;;
76165;SDS011;65085;46.718;20.136;2022-11-23T02:19:24;10.88;;;5.03;;
76165;SDS011;65085;46.718;20.136;2022-11-23T02:22:39;9.73;;;4.82;;
76165;SDS011;65085;46.718;20.136;2022-11-23T02:25:54;9.02;;;5.30;;
76165;SDS011;65085;46.718;20.136;2022-11-23T02:29:01;10.27;;;4.88;;
76165;SDS011;65085;46.718;20.136;2022-11-23T02:32:08;10.83;;;5.27;;
76165;SDS011;65085;46.718;20.136;2022-11-23T02:35:11;9.93;;;5.40;;
76165;SDS011;65085;46.718;20.136;2022-11-23T02:38:17;10.25;;;4.97;;
76165;SDS011;65085;46.718;20.136;2022-11-23T02:41:21;10.35;;;5.32;;
76165;SDS011;65085;46.718;20.136;2022-11-23T02:44:27;9.95;;;4.93;;
76165;SDS011;65085;46.718;20.136;2022-11-23T02:47:35;8.90;;;4.93;;
76165;SDS011;65085;46.718;20.136;2022-11-23T02:50:37;10.25;;;5.07;;
76165;SDS011;65085;46.718;20.136;2022-11-23T02:53:41;8.07;;;4.60;;
76165;SDS011;65085;46.718;20.136;2022-11-23T02:56:46;8.50;;;4.63;;
76165;SDS011;65085;46.718;20.136;2022-11-23T02:59:48;10.35;;;5.30;;
76165;SDS011;65085;46.718;20.136;2022-11-23T03:02:51;10.60;;;4.73;;
76165;SDS011;65085;46.718;20.136;2022-11-23T03:05:54;8.98;;;4.47;;
76165;SDS011;65085;46.718;20.136;2022-11-23T03:08:58;9.60;;;4.95;;
76165;SDS011;65085;46.718;20.136;2022-11-23T03:12:02;9.45;;;5.10;;
76165;SDS011;65085;46.718;20.136;2022-11-23T03:15:05;8.43;;;4.50;;
76165;SDS011;65085;46.718;20.136;2022-11-23T03:18:08;8.90;;;4.63;;
76165;SDS011;65085;46.718;20.136;2022-11-23T03:21:11;7.82;;;4.53;;
76165;SDS011;65085;46.718;20.136;2022-11-23T03:24:13;9.90;;;4.60;;
76165;SDS011;65085;46.718;20.136;2022-11-23T03:27:19;8.93;;;4.68;;
76165;SDS011;65085;46.718;20.136;2022-11-23T03:30:22;11.35;;;5.13;;
76165;SDS011;65085;46.718;20.136;2022-11-23T03:33:25;9.03;;;4.93;;
76165;SDS011;65085;46.718;20.136;2022-11-23T03:36:27;9.50;;;5.18;;
76165;SDS011;65085;46.718;20.136;2022-11-23T03:39:30;8.93;;;4.47;;
76165;SDS011;65085;46.718;20.136;2022-11-23T03:42:34;10.75;;;5.00;;
76165;SDS011;65085;46.718;20.136;2022-11-23T03:45:37;12.50;;;4.78;;
76165;SDS011;65085;46.718;20.136;2022-11-23T03:48:40;9.17;;;4.80;;
76165;SDS011;65085;46.718;20.136;2022-11-23T03:51:42;9.02;;;4.78;;
76165;SDS011;65085;46.718;20.136;2022-11-23T03:54:45;9.18;;;4.30;;
76165;SDS011;65085;46.718;20.136;2022-11-23T03:57:49;8.50;;;4.72;;
76165;SDS011;65085;46.718;20.136;2022-11-23T04:00:53;9.45;;;4.32;;
76165;SDS011;65085;46.718;20.136;2022-11-23T04:03:56;9.57;;;4.57;;
76165;SDS011;65085;46.718;20.136;2022-11-23T04:07:10;9.05;;;4.47;;
76165;SDS011;65085;46.718;20.136;2022-11-23T04:10:19;7.93;;;4.20;;
76165;SDS011;65085;46.718;20.136;2022-11-23T04:13:49;13.35;;;4.78;;
76165;SDS011;65085;46.718;20.136;2022-11-23T04:16:53;8.25;;;4.75;;
76165;SDS011;65085;46.718;20.136;2022-11-23T04:19:55;9.83;;;4.80;;
76165;SDS011;65085;46.718;20.136;2022-11-23T04:22:58;8.85;;;5.10;;
76165;SDS011;65085;46.718;20.136;2022-11-23T04:26:03;8.43;;;4.70;;
76165;SDS011;65085;46.718;20.136;2022-11-23T04:29:08;8.27;;;4.85;;
76165;SDS011;65085;46.718;20.136;2022-11-23T04:32:14;8.60;;;4.90;;
76165;SDS011;65085;46.718;20.136;2022-11-23T04:35:18;9.13;;;4.67;;
76165;SDS011;65085;46.718;20.136;2022-11-23T04:38:23;8.90;;;5.35;;
76165;SDS011;65085;46.718;20.136;2022-11-23T04:41:27;8.13;;;4.88;;
76165;SDS011;65085;46.718;20.136;2022-11-23T04:44:31;8.90;;;4.97;;
76165;SDS011;65085;46.718;20.136;2022-11-23T04:47:37;8.30;;;4.95;;
76165;SDS011;65085;46.718;20.136;2022-11-23T04:50:45;10.13;;;5.10;;
76165;SDS011;65085;46.718;20.136;2022-11-23T04:53:54;9.48;;;4.72;;
76165;SDS011;65085;46.718;20.136;2022-11-23T04:56:58;16.23;;;8.02;;
76165;SDS011;65085;46.718;20.136;2022-11-23T05:00:02;10.35;;;5.80;;
76165;SDS011;65085;46.718;20.136;2022-11-23T05:03:09;28.02;;;13.40;;
76165;SDS011;65085;46.718;20.136;2022-11-23T05:06:14;14.07;;;9.03;;
76165;SDS011;65085;46.718;20.136;2022-11-23T05:09:16;10.77;;;6.30;;
76165;SDS011;65085;46.718;20.136;2022-11-23T05:12:31;10.15;;;6.07;;
76165;SDS011;65085;46.718;20.136;2022-11-23T05:15:36;10.10;;;6.13;;
76165;SDS011;65085;46.718;20.136;2022-11-23T05:18:39;12.82;;;6.57;;
76165;SDS011;65085;46.718;20.136;2022-11-23T05:21:42;20.33;;;7.50;;
76165;SDS011;65085;46.718;20.136;2022-11-23T05:24:47;16.00;;;8.85;;
76165;SDS011;65085;46.718;20.136;2022-11-23T05:27:53;16.17;;;8.63;;
76165;SDS011;65085;46.718;20.136;2022-11-23T05:30:57;12.40;;;6.50;;
76165;SDS011;65085;46.718;20.136;2022-11-23T05:33:59;12.05;;;6.82;;
76165;SDS011;65085;46.718;20.136;2022-11-23T05:37:12;13.83;;;8.00;;
76165;SDS011;65085;46.718;20.136;2022-11-23T05:40:26;17.00;;;10.20;;
76165;SDS011;65085;46.718;20.136;2022-11-23T05:43:32;11.93;;;6.45;;
76165;SDS011;65085;46.718;20.136;2022-11-23T05:46:36;9.65;;;5.63;;
76165;SDS011;65085;46.718;20.136;2022-11-23T05:49:39;10.65;;;6.03;;
76165;SDS011;65085;46.718;20.136;2022-11-23T05:52:41;12.23;;;6.10;;
76165;SDS011;65085;46.718;20.136;2022-11-23T05:55:44;11.38;;;6.70;;
76165;SDS011;65085;46.718;20.136;2022-11-23T05:58:47;12.20;;;6.03;;
76165;SDS011;65085;46.718;20.136;2022-11-23T06:01:51;15.88;;;7.40;;
76165;SDS011;65085;46.718;20.136;2022-11-23T06:05:02;12.95;;;6.43;;
76165;SDS011;65085;46.718;20.136;2022-11-23T06:08:13;12.97;;;6.43;;
76165;SDS011;65085;46.718;20.136;2022-11-23T06:11:16;11.38;;;7.32;;
76165;SDS011;65085;46.718;20.136;2022-11-23T06:14:19;10.10;;;5.88;;
76165;SDS011;65085;46.718;20.136;2022-11-23T06:17:23;13.48;;;6.10;;
76165;SDS011;65085;46.718;20.136;2022-11-23T06:20:29;12.07;;;6.18;;
76165;SDS011;65085;46.718;20.136;2022-11-23T06:23:36;12.07;;;6.63;;
76165;SDS011;65085;46.718;20.136;2022-11-23T06:26:40;10.18;;;5.90;;
76165;SDS011;65085;46.718;20.136;2022-11-23T06:29:43;8.93;;;5.75;;
76165;SDS011;65085;46.718;20.136;2022-11-23T06:32:48;12.27;;;6.03;;
76165;SDS011;65085;46.718;20.136;2022-11-23T06:35:52;10.18;;;5.47;;
76165;SDS011;65085;46.718;20.136;2022-11-23T06:38:57;12.77;;;5.83;;
76165;SDS011;65085;46.718;20.136;2022-11-23T06:42:00;12.02;;;5.93;;
76165;SDS011;65085;46.718;20.136;2022-11-23T06:45:22;13.40;;;7.38;;
76165;SDS011;65085;46.718;20.136;2022-11-23T06:48:29;13.23;;;6.13;;
76165;SDS011;65085;46.718;20.136;2022-11-23T06:51:34;11.43;;;6.25;;
76165;SDS011;65085;46.718;20.136;2022-11-23T06:54:36;13.93;;;6.60;;
76165;SDS011;65085;46.718;20.136;2022-11-23T06:57:39;21.45;;;10.13;;
76165;SDS011;65085;46.718;20.136;2022-11-23T07:00:44;20.33;;;9.68;;
76165;SDS011;65085;46.718;20.136;2022-11-23T07:03:49;15.38;;;8.18;;
76165;SDS011;65085;46.718;20.136;2022-11-23T07:07:02;11.27;;;6.60;;
76165;SDS011;65085;46.718;20.136;2022-11-23T07:10:15;15.00;;;8.10;;
76165;SDS011;65085;46.718;20.136;2022-11-23T07:13:21;14.15;;;8.15;;
76165;SDS011;65085;46.718;20.136;2022-11-23T07:16:23;16.92;;;8.38;;
76165;SDS011;65085;46.718;20.136;2022-11-23T07:19:28;12.82;;;5.88;;
76165;SDS011;65085;46.718;20.136;2022-11-23T07:22:33;10.00;;;5.22;;
76165;SDS011;65085;46.718;20.136;2022-11-23T07:25:36;9.40;;;5.43;;
76165;SDS011;65085;46.718;20.136;2022-11-23T07:28:39;12.50;;;6.18;;
76165;SDS011;65085;46.718;20.136;2022-11-23T07:31:42;15.75;;;7.18;;
76165;SDS011;65085;46.718;20.136;2022-11-23T07:34:46;11.02;;;5.65;;
76165;SDS011;65085;46.718;20.136;2022-11-23T07:37:49;11.07;;;6.00;;
76165;SDS011;65085;46.718;20.136;2022-11-23T07:40:52;8.03;;;4.87;;
76165;SDS011;65085;46.718;20.136;2022-11-23T07:44:09;9.25;;;5.72;;
76165;SDS011;65085;46.718;20.136;2022-11-23T07:47:12;9.48;;;4.72;;
76165;SDS011;65085;46.718;20.136;2022-11-23T07:50:16;9.35;;;5.75;;
76165;SDS011;65085;46.718;20.136;2022-11-23T07:53:18;25.65;;;10.35;;
76165;SDS011;65085;46.718;20.136;2022-11-23T07:56:22;10.03;;;6.00;;
76165;SDS011;65085;46.718;20.136;2022-11-23T07:59:25;9.63;;;5.30;;
76165;SDS011;65085;46.718;20.136;2022-11-23T08:02:28;15.88;;;9.35;;
76165;SDS011;65085;46.718;20.136;2022-11-23T08:05:35;26.20;;;14.55;;
76165;SDS011;65085;46.718;20.136;2022-11-23T08:08:38;37.50;;;19.42;;
76165;SDS011;65085;46.718;20.136;2022-11-23T08:11:41;15.80;;;9.40;;
76165;SDS011;65085;46.718;20.136;2022-11-23T08:14:43;14.70;;;9.65;;
76165;SDS011;65085;46.718;20.136;2022-11-23T08:17:46;14.30;;;7.40;;
76165;SDS011;65085;46.718;20.136;2022-11-23T08:20:50;15.98;;;10.95;;
76165;SDS011;65085;46.718;20.136;2022-11-23T08:24:01;10.30;;;5.80;;
76165;SDS011;65085;46.718;20.136;2022-11-23T08:27:04;9.17;;;5.53;;
76165;SDS011;65085;46.718;20.136;2022-11-23T08:30:07;11.10;;;5.47;;
76165;SDS011;65085;46.718;20.136;2022-11-23T08:33:10;8.90;;;5.22;;
76165;SDS011;65085;46.718;20.136;2022-11-23T08:36:15;19.83;;;11.60;;
76165;SDS011;65085;46.718;20.136;2022-11-23T08:39:17;18.05;;;11.23;;
76165;SDS011;65085;46.718;20.136;2022-11-23T08:42:20;10.67;;;7.27;;
76165;SDS011;65085;46.718;20.136;2022-11-23T08:45:23;10.20;;;6.15;;
76165;SDS011;65085;46.718;20.136;2022-11-23T08:48:26;19.42;;;11.77;;
76165;SDS011;65085;46.718;20.136;2022-11-23T08:51:30;11.70;;;6.70;;
76165;SDS011;65085;46.718;20.136;2022-11-23T08:54:33;10.38;;;6.10;;
76165;SDS011;65085;46.718;20.136;2022-11-23T08:57:36;8.43;;;5.43;;
76165;SDS011;65085;46.718;20.136;2022-11-23T09:00:38;8.00;;;5.18;;
76165;SDS011;65085;46.718;20.136;2022-11-23T09:03:41;11.52;;;6.00;;
76165;SDS011;65085;46.718;20.136;2022-11-23T09:06:45;6.78;;;4.00;;
76165;SDS011;65085;46.718;20.136;2022-11-23T09:09:48;9.02;;;4.22;;
76165;SDS011;65085;46.718;20.136;2022-11-23T09:12:51;6.40;;;3.73;;
76165;SDS011;65085;46.718;20.136;2022-11-23T09:15:56;9.65;;;4.55;;
76165;SDS011;65085;46.718;20.136;2022-11-23T09:18:59;11.25;;;4.80;;
76165;SDS011;65085;46.718;20.136;2022-11-23T09:22:04;7.32;;;4.85;;
76165;SDS011;65085;46.718;20.136;2022-11-23T09:25:07;7.63;;;4.65;;
76165;SDS011;65085;46.718;20.136;2022-11-23T09:28:11;9.97;;;5.20;;
76165;SDS011;65085;46.718;20.136;2022-11-23T09:31:15;8.82;;;5.13;;
76165;SDS011;65085;46.718;20.136;2022-11-23T09:34:19;8.15;;;5.13;;
76165;SDS011;65085;46.718;20.136;2022-11-23T09:37:24;7.30;;;4.65;;
76165;SDS011;65085;46.718;20.136;2022-11-23T09:40:28;9.63;;;4.65;;
76165;SDS011;65085;46.718;20.136;2022-11-23T09:43:36;9.30;;;5.07;;
76165;SDS011;65085;46.718;20.136;2022-11-23T09:46:47;7.55;;;4.82;;
76165;SDS011;65085;46.718;20.136;2022-11-23T09:50:07;6.28;;;4.13;;
76165;SDS011;65085;46.718;20.136;2022-11-23T09:53:17;5.75;;;3.72;;
76165;SDS011;65085;46.718;20.136;2022-11-23T09:56:26;6.47;;;4.53;;
76165;SDS011;65085;46.718;20.136;2022-11-23T09:59:35;8.50;;;4.23;;
76165;SDS011;65085;46.718;20.136;2022-11-23T10:02:43;10.45;;;6.30;;
76165;SDS011;65085;46.718;20.136;2022-11-23T10:05:47;8.23;;;5.30;;
76165;SDS011;65085;46.718;20.136;2022-11-23T10:12:30;9.90;;;5.43;;
76165;SDS011;65085;46.718;20.136;2022-11-23T10:15:44;9.07;;;5.70;;
76165;SDS011;65085;46.718;20.136;2022-11-23T10:19:00;11.25;;;5.30;;
76165;SDS011;65085;46.718;20.136;2022-11-23T10:22:11;7.70;;;5.40;;
76165;SDS011;65085;46.718;20.136;2022-11-23T10:25:22;7.05;;;4.68;;
76165;SDS011;65085;46.718;20.136;2022-11-23T10:28:26;8.38;;;5.05;;
76165;SDS011;65085;46.718;20.136;2022-11-23T10:31:32;10.53;;;5.30;;
76165;SDS011;65085;46.718;20.136;2022-11-23T10:34:42;7.32;;;4.55;;
76165;SDS011;65085;46.718;20.136;2022-11-23T10:37:50;7.50;;;4.63;;
76165;SDS011;65085;46.718;20.136;2022-11-23T10:40:59;9.20;;;5.53;;
76165;SDS011;65085;46.718;20.136;2022-11-23T10:44:04;7.90;;;5.22;;
76165;SDS011;65085;46.718;20.136;2022-11-23T10:47:33;9.37;;;5.97;;
76165;SDS011;65085;46.718;20.136;2022-11-23T10:50:39;8.88;;;5.72;;
76165;SDS011;65085;46.718;20.136;2022-11-23T10:53:42;13.55;;;5.82;;
76165;SDS011;65085;46.718;20.136;2022-11-23T10:56:47;9.88;;;5.63;;
76165;SDS011;65085;46.718;20.136;2022-11-23T10:59:56;11.20;;;5.90;;
76165;SDS011;65085;46.718;20.136;2022-11-23T11:03:00;11.40;;;6.50;;
76165;SDS011;65085;46.718;20.136;2022-11-23T11:06:24;9.75;;;6.05;;
76165;SDS011;65085;46.718;20.136;2022-11-23T11:09:29;8.70;;;5.38;;
76165;SDS011;65085;46.718;20.136;2022-11-23T11:12:34;14.63;;;6.13;;
76165;SDS011;65085;46.718;20.136;2022-11-23T11:15:37;11.48;;;6.20;;
76165;SDS011;65085;46.718;20.136;2022-11-23T11:18:48;10.70;;;6.27;;
76165;SDS011;65085;46.718;20.136;2022-11-23T11:21:51;10.10;;;5.70;;
76165;SDS011;65085;46.718;20.136;2022-11-23T11:24:54;10.20;;;6.50;;
76165;SDS011;65085;46.718;20.136;2022-11-23T11:27:58;14.18;;;7.10;;
76165;SDS011;65085;46.718;20.136;2022-11-23T11:31:10;15.15;;;7.55;;
76165;SDS011;65085;46.718;20.136;2022-11-23T11:34:25;12.60;;;5.83;;
76165;SDS011;65085;46.718;20.136;2022-11-23T11:37:35;12.45;;;6.85;;
76165;SDS011;65085;46.718;20.136;2022-11-23T11:40:44;13.48;;;6.82;;
76165;SDS011;65085;46.718;20.136;2022-11-23T11:43:50;10.07;;;5.47;;
76165;SDS011;65085;46.718;20.136;2022-11-23T11:47:00;10.98;;;6.10;;
76165;SDS011;65085;46.718;20.136;2022-11-23T11:50:13;17.23;;;7.13;;
76165;SDS011;65085;46.718;20.136;2022-11-23T11:53:22;15.57;;;8.18;;
76165;SDS011;65085;46.718;20.136;2022-11-23T11:56:30;16.35;;;8.15;;
76165;SDS011;65085;46.718;20.136;2022-11-23T11:59:40;22.67;;;14.32;;
76165;SDS011;65085;46.718;20.136;2022-11-23T12:02:48;16.63;;;9.80;;
76165;SDS011;65085;46.718;20.136;2022-11-23T12:06:00;10.47;;;5.63;;
76165;SDS011;65085;46.718;20.136;2022-11-23T12:09:09;11.48;;;7.00;;
76165;SDS011;65085;46.718;20.136;2022-11-23T12:12:17;18.25;;;8.52;;
76165;SDS011;65085;46.718;20.136;2022-11-23T12:15:31;10.85;;;6.43;;
76165;SDS011;65085;46.718;20.136;2022-11-23T12:18:57;12.57;;;7.68;;
76165;SDS011;65085;46.718;20.136;2022-11-23T12:22:20;11.30;;;6.80;;
76165;SDS011;65085;46.718;20.136;2022-11-23T12:25:39;14.38;;;8.23;;
76165;SDS011;65085;46.718;20.136;2022-11-23T12:28:51;15.85;;;6.93;;
76165;SDS011;65085;46.718;20.136;2022-11-23T12:32:10;10.73;;;6.75;;
76165;SDS011;65085;46.718;20.136;2022-11-23T12:35:28;10.50;;;6.55;;
76165;SDS011;65085;46.718;20.136;2022-11-23T12:38:39;13.87;;;6.40;;
76165;SDS011;65085;46.718;20.136;2022-11-23T12:41:53;15.13;;;6.43;;
76165;SDS011;65085;46.718;20.136;2022-11-23T12:45:11;11.90;;;7.50;;
76165;SDS011;65085;46.718;20.136;2022-11-23T12:48:51;13.77;;;7.80;;
76165;SDS011;65085;46.718;20.136;2022-11-23T12:52:04;12.75;;;7.07;;
76165;SDS011;65085;46.718;20.136;2022-11-23T12:55:27;11.23;;;7.27;;
76165;SDS011;65085;46.718;20.136;2022-11-23T12:58:41;12.98;;;7.30;;
76165;SDS011;65085;46.718;20.136;2022-11-23T13:01:50;11.15;;;7.05;;
76165;SDS011;65085;46.718;20.136;2022-11-23T13:05:06;11.88;;;7.00;;
76165;SDS011;65085;46.718;20.136;2022-11-23T13:08:31;13.98;;;8.05;;
76165;SDS011;65085;46.718;20.136;2022-11-23T13:12:04;13.50;;;7.53;;
76165;SDS011;65085;46.718;20.136;2022-11-23T13:15:21;14.00;;;7.60;;
76165;SDS011;65085;46.718;20.136;2022-11-23T13:18:47;14.20;;;7.97;;
76165;SDS011;65085;46.718;20.136;2022-11-23T13:22:05;20.58;;;11.80;;
76165;SDS011;65085;46.718;20.136;2022-11-23T13:25:13;22.20;;;10.57;;
76165;SDS011;65085;46.718;20.136;2022-11-23T13:28:28;22.90;;;12.77;;
76165;SDS011;65085;46.718;20.136;2022-11-23T13:35:49;24.67;;;13.77;;
76165;SDS011;65085;46.718;20.136;2022-11-23T13:43:23;37.42;;;20.58;;
76165;SDS011;65085;46.718;20.136;2022-11-23T13:46:27;19.27;;;9.73;;
76165;SDS011;65085;46.718;20.136;2022-11-23T13:49:38;14.00;;;8.40;;
76165;SDS011;65085;46.718;20.136;2022-11-23T13:52:47;17.63;;;9.60;;
76165;SDS011;65085;46.718;20.136;2022-11-23T13:55:51;34.72;;;21.75;;
76165;SDS011;65085;46.718;20.136;2022-11-23T13:58:57;39.70;;;25.35;;
76165;SDS011;65085;46.718;20.136;2022-11-23T14:02:22;23.63;;;14.87;;
76165;SDS011;65085;46.718;20.136;2022-11-23T14:05:28;18.27;;;10.70;;
76165;SDS011;65085;46.718;20.136;2022-11-23T14:08:32;20.42;;;10.93;;
76165;SDS011;65085;46.718;20.136;2022-11-23T14:11:38;36.08;;;21.20;;
76165;SDS011;65085;46.718;20.136;2022-11-23T14:14:54;40.65;;;25.35;;
76165;SDS011;65085;46.718;20.136;2022-11-23T14:21:38;49.13;;;30.30;;
76165;SDS011;65085;46.718;20.136;2022-11-23T14:24:54;39.67;;;24.85;;
76165;SDS011;65085;46.718;20.136;2022-11-23T14:28:15;19.88;;;11.32;;
76165;SDS011;65085;46.718;20.136;2022-11-23T14:31:36;45.60;;;25.27;;
76165;SDS011;65085;46.718;20.136;2022-11-23T14:35:11;55.90;;;27.77;;
76165;SDS011;65085;46.718;20.136;2022-11-23T14:38:44;41.13;;;21.20;;
76165;SDS011;65085;46.718;20.136;2022-11-23T14:42:09;58.13;;;25.88;;
76165;SDS011;65085;46.718;20.136;2022-11-23T14:45:14;32.63;;;16.45;;
76165;SDS011;65085;46.718;20.136;2022-11-23T14:48:24;33.67;;;16.05;;
76165;SDS011;65085;46.718;20.136;2022-11-23T14:51:29;38.87;;;18.37;;
76165;SDS011;65085;46.718;20.136;2022-11-23T14:54:35;39.25;;;20.13;;
76165;SDS011;65085;46.718;20.136;2022-11-23T14:57:39;31.50;;;15.90;;
76165;SDS011;65085;46.718;20.136;2022-11-23T15:00:44;39.58;;;19.38;;
76165;SDS011;65085;46.718;20.136;2022-11-23T15:03:56;47.83;;;23.35;;
76165;SDS011;65085;46.718;20.136;2022-11-23T15:07:00;81.67;;;30.10;;
76165;SDS011;65085;46.718;20.136;2022-11-23T15:10:07;43.38;;;20.23;;
76165;SDS011;65085;46.718;20.136;2022-11-23T15:13:22;22.60;;;12.30;;
76165;SDS011;65085;46.718;20.136;2022-11-23T15:16:26;18.65;;;9.95;;
76165;SDS011;65085;46.718;20.136;2022-11-23T15:19:30;25.80;;;12.77;;
76165;SDS011;65085;46.718;20.136;2022-11-23T15:22:32;27.23;;;13.40;;
76165;SDS011;65085;46.718;20.136;2022-11-23T15:25:38;30.33;;;14.43;;
76165;SDS011;65085;46.718;20.136;2022-11-23T15:28:52;25.35;;;13.93;;
76165;SDS011;65085;46.718;20.136;2022-11-23T15:31:55;23.85;;;13.13;;
76165;SDS011;65085;46.718;20.136;2022-11-23T15:35:19;33.67;;;18.02;;
76165;SDS011;65085;46.718;20.136;2022-11-23T15:38:24;48.67;;;25.20;;
76165;SDS011;65085;46.718;20.136;2022-11-23T15:41:27;50.53;;;26.98;;
76165;SDS011;65085;46.718;20.136;2022-11-23T15:44:31;34.78;;;19.70;;
76165;SDS011;65085;46.718;20.136;2022-11-23T15:47:34;42.17;;;22.23;;
76165;SDS011;65085;46.718;20.136;2022-11-23T15:50:45;42.53;;;23.58;;
76165;SDS011;65085;46.718;20.136;2022-11-23T15:53:50;42.80;;;21.83;;
76165;SDS011;65085;46.718;20.136;2022-11-23T15:56:54;44.53;;;22.23;;
76165;SDS011;65085;46.718;20.136;2022-11-23T16:00:00;34.33;;;18.98;;
76165;SDS011;65085;46.718;20.136;2022-11-23T16:03:26;38.10;;;21.85;;
76165;SDS011;65085;46.718;20.136;2022-11-23T16:06:35;36.58;;;19.88;;
76165;SDS011;65085;46.718;20.136;2022-11-23T16:09:39;44.10;;;24.13;;
76165;SDS011;65085;46.718;20.136;2022-11-23T16:12:53;52.95;;;28.17;;
76165;SDS011;65085;46.718;20.136;2022-11-23T16:15:57;47.72;;;23.52;;
76165;SDS011;65085;46.718;20.136;2022-11-23T16:19:01;38.33;;;19.58;;
76165;SDS011;65085;46.718;20.136;2022-11-23T16:22:25;32.72;;;17.52;;
76165;SDS011;65085;46.718;20.136;2022-11-23T16:25:32;47.10;;;22.10;;
76165;SDS011;65085;46.718;20.136;2022-11-23T16:28:36;46.10;;;21.80;;
76165;SDS011;65085;46.718;20.136;2022-11-23T16:31:40;47.30;;;22.27;;
76165;SDS011;65085;46.718;20.136;2022-11-23T16:35:07;41.40;;;19.08;;
76165;SDS011;65085;46.718;20.136;2022-11-23T16:38:19;49.25;;;21.75;;
76165;SDS011;65085;46.718;20.136;2022-11-23T16:41:21;77.97;;;37.50;;
76165;SDS011;65085;46.718;20.136;2022-11-23T16:44:24;63.55;;;32.13;;
76165;SDS011;65085;46.718;20.136;2022-11-23T16:47:26;57.58;;;27.25;;
76165;SDS011;65085;46.718;20.136;2022-11-23T16:50:31;39.13;;;19.83;;
76165;SDS011;65085;46.718;20.136;2022-11-23T16:53:37;23.38;;;12.07;;
76165;SDS011;65085;46.718;20.136;2022-11-23T16:57:02;20.80;;;12.00;;
76165;SDS011;65085;46.718;20.136;2022-11-23T17:00:13;18.95;;;11.25;;
76165;SDS011;65085;46.718;20.136;2022-11-23T17:03:17;23.27;;;12.55;;
76165;SDS011;65085;46.718;20.136;2022-11-23T17:06:21;16.20;;;9.98;;
76165;SDS011;65085;46.718;20.136;2022-11-23T17:09:28;21.00;;;11.95;;
76165;SDS011;65085;46.718;20.136;2022-11-23T17:12:30;20.07;;;11.50;;
76165;SDS011;65085;46.718;20.136;2022-11-23T17:15:33;22.02;;;12.40;;
76165;SDS011;65085;46.718;20.136;2022-11-23T17:18:36;25.48;;;14.48;;
76165;SDS011;65085;46.718;20.136;2022-11-23T17:21:38;30.85;;;17.08;;
76165;SDS011;65085;46.718;20.136;2022-11-23T17:24:42;26.98;;;16.08;;
76165;SDS011;65085;46.718;20.136;2022-11-23T17:27:45;26.13;;;14.23;;
76165;SDS011;65085;46.718;20.136;2022-11-23T17:30:48;27.30;;;13.80;;
76165;SDS011;65085;46.718;20.136;2022-11-23T17:33:51;26.67;;;13.73;;
76165;SDS011;65085;46.718;20.136;2022-11-23T17:36:57;26.73;;;14.50;;
76165;SDS011;65085;46.718;20.136;2022-11-23T17:40:02;16.30;;;9.40;;
76165;SDS011;65085;46.718;20.136;2022-11-23T17:43:05;18.60;;;10.73;;
76165;SDS011;65085;46.718;20.136;2022-11-23T17:46:11;20.92;;;11.35;;
76165;SDS011;65085;46.718;20.136;2022-11-23T17:49:18;17.20;;;11.07;;
76165;SDS011;65085;46.718;20.136;2022-11-23T17:52:21;22.55;;;12.05;;
76165;SDS011;65085;46.718;20.136;2022-11-23T17:55:26;15.57;;;9.95;;
76165;SDS011;65085;46.718;20.136;2022-11-23T17:58:29;14.90;;;8.60;;
76165;SDS011;65085;46.718;20.136;2022-11-23T18:01:32;16.92;;;9.60;;
76165;SDS011;65085;46.718;20.136;2022-11-23T18:04:35;13.75;;;8.50;;
76165;SDS011;65085;46.718;20.136;2022-11-23T18:07:38;21.35;;;11.65;;
76165;SDS011;65085;46.718;20.136;2022-11-23T18:10:44;17.10;;;9.35;;
76165;SDS011;65085;46.718;20.136;2022-11-23T18:13:46;19.37;;;10.43;;
76165;SDS011;65085;46.718;20.136;2022-11-23T18:16:51;20.33;;;12.27;;
76165;SDS011;65085;46.718;20.136;2022-11-23T18:19:54;20.45;;;10.35;;
76165;SDS011;65085;46.718;20.136;2022-11-23T18:22:57;16.13;;;9.23;;
76165;SDS011;65085;46.718;20.136;2022-11-23T18:26:02;15.35;;;8.40;;
76165;SDS011;65085;46.718;20.136;2022-11-23T18:29:06;18.93;;;10.87;;
76165;SDS011;65085;46.718;20.136;2022-11-23T18:32:09;17.05;;;9.68;;